Time;durP1;ratioP1;P1;durP2;ratioP2;P2;SDS_P1;SDS_P2;PMS_P1;PMS_P2;Temp;Humidity;BMP_temperature;BMP_pressure;BME280_temperature;BME280_humidity;BME280_pressure;Samples;Min_cycle;Max_cycle;Signal;HPM_P1;HPM_P2
2022/10/06 00:33:17;;;;;;;4.70;4.30;;;12.80;93.80;;;13.34;78.79;98706.50;5098553;27;20531;-84
2022/10/06 00:35:46;;;;;;;5.93;5.43;;;12.90;93.30;;;13.29;78.95;98709.03;5125918;27;20508;-83
2022/10/06 00:38:17;;;;;;;5.47;5.07;;;13.00;93.20;;;12.97;79.02;98658.28;5116219;27;20452;-85
2022/10/06 00:40:47;;;;;;;4.90;4.50;;;13.00;92.80;;;13.35;78.70;98708.19;5112935;28;20479;-84
2022/10/06 00:43:46;;;;;;;5.27;4.87;;;13.00;92.80;;;13.17;78.60;98706.19;5101969;28;20449;-86
2022/10/06 00:46:21;;;;;;;4.57;4.20;;;12.90;92.90;;;13.16;79.33;98709.94;5131970;27;20463;-85
2022/10/06 00:48:57;;;;;;;5.07;4.57;;;12.80;93.30;;;13.23;78.99;98710.72;5142740;27;20452;-88
2022/10/06 00:51:24;;;;;;;5.13;4.73;;;12.90;93.10;;;13.18;79.12;98718.69;5137426;27;20479;-87
2022/10/06 00:53:52;;;;;;;9.57;5.00;;;12.90;93.10;;;13.28;78.65;98727.22;5122901;27;20453;-85
2022/10/06 00:56:19;;;;;;;5.03;4.63;;;12.90;93.00;;;13.30;78.89;98741.38;5126770;27;20455;-86
2022/10/06 00:58:48;;;;;;;4.60;4.20;;;13.00;93.10;;;13.21;78.76;98720.97;5142309;27;20460;-87
2022/10/06 01:01:16;;;;;;;4.33;4.00;;;12.90;93.00;;;12.91;78.88;98674.56;5120347;27;20451;-86
2022/10/06 01:03:51;;;;;;;5.13;4.63;;;13.00;93.00;;;13.29;78.71;98726.16;5114766;27;20527;-88
2022/10/06 01:06:18;;;;;;;4.60;4.20;;;12.90;92.80;;;13.04;79.27;98713.31;5128192;27;20455;-86
2022/10/06 01:08:45;;;;;;;6.83;4.97;;;13.00;92.90;;;13.00;79.39;98706.66;5147461;27;20457;-85
2022/10/06 01:11:14;;;;;;;5.10;4.70;;;13.00;92.80;;;13.26;78.99;98729.28;5108718;27;20473;-85
2022/10/06 01:13:43;;;;;;;15.23;5.00;;;13.00;93.00;;;13.28;79.31;98731.78;5121534;27;20476;-86
2022/10/06 01:16:18;;;;;;;5.37;4.63;;;13.00;93.00;;;13.27;79.24;98732.84;5124341;27;20456;-85
2022/10/06 01:18:47;;;;;;;4.47;4.03;;;13.00;93.00;;;13.31;78.82;98732.19;5133860;27;20452;-85
2022/10/06 01:21:24;;;;;;;6.17;5.40;;;13.10;92.60;;;13.37;78.74;98737.81;5123538;27;20468;-85
2022/10/06 01:23:53;;;;;;;5.00;4.50;;;13.20;92.30;;;13.38;78.98;98739.47;5102493;27;20819;-83
2022/10/06 01:26:21;;;;;;;4.83;4.33;;;13.20;92.40;;;13.26;78.99;98725.75;5112309;27;20457;-85
2022/10/06 01:28:49;;;;;;;6.07;5.40;;;13.20;92.40;;;12.65;79.07;98624.81;5123731;27;20542;-85
2022/10/06 01:31:17;;;;;;;5.20;4.73;;;13.10;92.40;;;12.87;79.43;98680.41;5086748;28;20858;-88
2022/10/06 01:33:44;;;;;;;5.47;4.97;;;13.00;92.70;;;13.12;79.50;98741.25;5120824;27;20469;-87
2022/10/06 01:36:12;;;;;;;5.50;4.70;;;13.00;93.00;;;13.16;79.70;98742.50;5103565;27;20895;-86
2022/10/06 01:38:39;;;;;;;5.60;4.90;;;12.90;93.20;;;13.16;79.94;98737.06;5125008;27;20461;-89
2022/10/06 01:41:10;;;;;;;5.63;5.13;;;12.90;93.50;;;13.04;80.47;98724.16;5096109;27;20461;-88
2022/10/06 01:50:59;;;;;;;5.03;4.63;;;12.80;93.70;;;13.02;80.20;98745.25;5113951;27;20469;-82
2022/10/06 01:53:28;;;;;;;5.53;5.03;;;12.70;94.10;;;12.95;80.40;98749.84;5111588;28;20891;-85
2022/10/06 01:55:58;;;;;;;5.63;5.13;;;12.70;94.30;;;12.50;80.39;98690.94;5127153;27;20441;-83
2022/10/06 01:58:28;;;;;;;6.33;5.60;;;12.70;94.50;;;12.96;80.26;98754.22;5121272;27;20472;-87
2022/10/06 02:00:56;;;;;;;5.70;5.20;;;12.70;94.20;;;12.97;80.27;98757.78;5122112;27;20510;-85
2022/10/06 02:03:25;;;;;;;5.33;4.83;;;12.70;94.10;;;12.47;80.62;98691.38;5105958;27;20466;-86
2022/10/06 02:05:56;;;;;;;7.30;5.00;;;12.70;94.10;;;12.94;80.75;98760.94;5107664;27;20460;-79
2022/10/06 02:08:23;;;;;;;5.30;4.90;;;12.60;94.40;;;12.59;80.66;98726.78;5103149;27;21103;-83
2022/10/06 02:10:50;;;;;;;6.00;5.43;;;12.50;94.40;;;12.96;80.50;98762.34;5118923;27;20481;-81
2022/10/06 02:13:17;;;;;;;5.10;4.67;;;12.60;95.10;;;12.96;80.55;98761.53;5106058;27;20460;-82
2022/10/06 02:15:48;;;;;;;5.73;5.23;;;12.50;95.10;;;12.70;80.79;98728.84;5101132;27;20486;-82
2022/10/06 02:18:15;;;;;;;5.80;5.33;;;12.60;94.60;;;12.91;80.64;98766.78;5129319;27;20439;-82
2022/10/06 02:20:42;;;;;;;6.20;5.60;;;12.50;94.90;;;12.92;80.45;98769.25;5126943;27;20446;-81
2022/10/06 02:23:10;;;;;;;5.50;5.00;;;12.50;95.30;;;12.57;80.19;98702.59;5128954;27;20450;-86
2022/10/06 02:25:37;;;;;;;6.03;5.43;;;12.50;95.00;;;12.73;80.46;98750.13;5125512;27;20930;-82
2022/10/06 02:28:05;;;;;;;6.87;5.47;;;12.50;95.10;;;12.83;80.66;98768.66;5141354;27;20624;-84
2022/10/06 02:30:32;;;;;;;9.47;5.90;;;12.40;95.30;;;12.74;80.77;98751.78;5119996;27;20487;-85
2022/10/06 02:33:01;;;;;;;7.23;5.30;;;12.40;96.10;;;12.98;80.55;98773.00;5119055;27;20448;-84
2022/10/06 02:35:28;;;;;;;6.40;5.80;;;12.50;95.70;;;12.93;80.35;98779.06;5111696;27;20459;-83
2022/10/06 02:37:56;;;;;;;6.93;6.23;;;12.40;95.70;;;13.08;79.69;98767.13;5112343;28;20497;-86
2022/10/06 02:40:24;;;;;;;6.00;5.40;;;12.50;95.40;;;13.09;79.64;98776.94;5115565;27;20450;-86
2022/10/06 02:42:51;;;;;;;6.43;5.73;;;12.60;94.40;;;13.19;79.01;98790.91;5130382;27;21018;-85
2022/10/06 02:45:18;;;;;;;5.80;5.30;;;12.70;94.10;;;13.25;78.91;98790.03;5117584;27;20461;-87
2022/10/06 02:47:46;;;;;;;7.47;5.60;;;12.80;93.90;;;13.31;78.66;98789.19;5120601;27;20447;-84
2022/10/06 02:50:15;;;;;;;10.10;5.77;;;12.80;93.30;;;13.29;78.54;98785.88;5096356;27;20485;-84
2022/10/06 02:52:42;;;;;;;6.50;5.20;;;12.90;93.20;;;12.95;78.67;98711.06;5125642;27;20453;-85
2022/10/06 02:55:10;;;;;;;6.90;5.63;;;12.90;93.30;;;13.15;79.13;98779.63;5108392;27;20815;-83
2022/10/06 02:57:38;;;;;;;6.67;5.53;;;12.80;93.40;;;13.16;79.05;98784.00;5129521;27;20490;-84
2022/10/06 03:00:07;;;;;;;5.70;4.70;;;12.70;93.80;;;12.96;79.43;98767.78;5112235;27;20458;-83
2022/10/06 03:02:40;;;;;;;9.30;4.80;;;12.80;93.40;;;12.93;79.47;98784.50;5094890;28;20882;-84
2022/10/06 03:05:08;;;;;;;8.90;5.13;;;12.60;93.70;;;13.05;79.47;98790.13;5101135;27;20524;-84
2022/10/06 03:07:36;;;;;;;5.20;4.73;;;12.60;94.20;;;12.89;80.01;98785.97;5101988;27;20510;-86
2022/10/06 03:10:04;;;;;;;7.13;4.70;;;12.60;94.20;;;12.85;80.39;98795.56;5094935;28;20530;-82
2022/10/06 03:12:31;;;;;;;4.90;4.50;;;12.60;94.20;;;12.86;80.08;98791.81;5122476;27;20485;-81
2022/10/06 03:14:59;;;;;;;6.30;4.50;;;12.50;94.80;;;12.77;80.59;98793.91;5122142;27;20454;-85
2022/10/06 03:17:26;;;;;;;6.33;5.23;;;12.40;94.70;;;12.37;80.55;98729.75;5118055;27;20564;-83
2022/10/06 03:19:55;;;;;;;6.00;5.40;;;12.40;95.00;;;12.87;79.66;98794.28;5118403;27;20477;-84
2022/10/06 03:22:23;;;;;;;10.10;4.90;;;12.50;94.20;;;12.86;80.06;98798.06;5112459;27;20530;-85
2022/10/06 03:24:51;;;;;;;5.90;5.10;;;12.60;93.80;;;12.80;79.76;98793.50;5104796;27;20458;-85
2022/10/06 03:27:18;;;;;;;5.40;4.87;;;12.60;93.60;;;12.87;79.75;98815.19;5115071;27;20483;-85
2022/10/06 03:29:46;;;;;;;11.00;5.20;;;12.60;93.90;;;12.88;79.86;98819.56;5097603;27;21041;-83
2022/10/06 03:32:13;;;;;;;6.50;5.67;;;12.60;93.70;;;12.88;79.86;98828.50;5107411;27;20475;-88
2022/10/06 03:34:40;;;;;;;5.50;4.90;;;12.60;93.80;;;12.87;79.92;98842.28;5113639;27;20465;-89
2022/10/06 03:37:08;;;;;;;5.43;5.00;;;12.60;93.60;;;12.81;79.55;98816.00;5113836;27;20701;-86
2022/10/06 03:39:35;;;;;;;8.80;5.30;;;12.60;93.50;;;12.92;79.78;98850.63;5102548;27;20506;-86
2022/10/06 03:42:04;;;;;;;8.33;5.30;;;12.60;93.70;;;12.95;79.63;98854.81;5091394;27;20455;-87
2022/10/06 03:44:33;;;;;;;6.73;5.70;;;12.60;93.80;;;12.88;80.12;98854.81;5106036;28;20503;-86
2022/10/06 03:47:02;;;;;;;7.40;5.77;;;12.50;94.00;;;12.88;80.75;98862.94;5126667;27;20473;-81
2022/10/06 03:49:29;;;;;;;8.47;5.83;;;12.50;95.00;;;13.03;79.96;98868.13;5131399;27;20541;-86
2022/10/06 03:51:56;;;;;;;7.80;6.23;;;12.50;94.80;;;13.03;79.73;98873.56;5140865;28;20476;-82
2022/10/06 03:54:23;;;;;;;6.97;5.13;;;12.60;94.50;;;13.26;78.83;98877.72;5127809;27;20435;-83
2022/10/06 03:56:51;;;;;;;6.43;5.60;;;12.70;94.30;;;12.79;79.13;98829.78;5122694;28;20465;-83
2022/10/06 03:59:20;;;;;;;5.87;5.37;;;12.70;93.80;;;13.04;79.45;98876.06;5148892;27;20509;-87
2022/10/06 04:01:48;;;;;;;6.57;5.50;;;12.60;94.10;;;13.15;79.09;98884.63;5116776;28;20534;-83
2022/10/06 04:04:16;;;;;;;5.83;5.20;;;12.70;94.00;;;13.15;79.15;98876.47;5144819;27;21257;-88
2022/10/06 04:06:44;;;;;;;6.70;6.00;;;12.80;93.90;;;13.37;79.10;98884.34;5125745;28;20465;-86
2022/10/06 04:09:13;;;;;;;6.03;4.93;;;12.80;94.10;;;13.44;77.87;98890.66;5116092;28;20868;-82
2022/10/06 04:11:42;;;;;;;12.10;5.40;;;12.80;93.60;;;13.13;78.29;98829.75;5115378;27;20470;-84
2022/10/06 04:14:11;;;;;;;7.30;5.30;;;12.90;93.60;;;13.34;77.78;98876.66;5110818;27;20463;-83
2022/10/06 04:16:43;;;;;;;6.77;5.40;;;12.90;92.80;;;13.20;78.53;98890.25;5125074;27;20455;-87
2022/10/06 04:19:13;;;;;;;5.90;5.17;;;12.70;93.30;;;12.82;78.13;98806.84;5138268;27;20523;-89
2022/10/06 04:21:42;;;;;;;7.83;5.90;;;12.70;93.80;;;13.19;78.90;98904.84;5128470;27;20846;-87
2022/10/06 04:24:10;;;;;;;6.60;5.40;;;12.70;93.70;;;13.12;78.87;98893.19;5099958;28;20467;-83
2022/10/06 04:26:41;;;;;;;6.33;5.20;;;12.70;93.80;;;13.07;78.99;98901.97;5081792;28;20476;-85
2022/10/06 04:29:08;;;;;;;8.03;5.60;;;12.70;93.70;;;12.81;80.41;98908.19;5106044;28;20971;-86
2022/10/06 04:31:37;;;;;;;6.60;5.80;;;12.50;94.30;;;12.64;80.78;98900.47;5121420;27;20477;-86
2022/10/06 04:34:07;;;;;;;6.17;5.57;;;12.40;95.20;;;12.71;80.51;98871.50;5114597;27;20459;-86
2022/10/06 04:36:39;;;;;;;5.97;5.30;;;12.40;95.60;;;13.03;80.40;98906.97;5104535;28;20476;-86
2022/10/06 04:39:09;;;;;;;6.47;5.70;;;12.60;95.30;;;13.21;79.54;98920.94;5103805;28;20510;-76
2022/10/06 04:41:38;;;;;;;5.80;4.63;;;12.70;94.20;;;13.23;79.30;98916.13;5113481;27;20458;-76
2022/10/06 04:44:07;;;;;;;5.30;4.80;;;12.80;93.80;;;13.44;78.25;98917.78;5107448;27;20541;-77
2022/10/06 04:46:35;;;;;;;6.57;4.87;;;13.00;93.20;;;13.49;78.37;98915.28;5116452;28;20453;-78
2022/10/06 04:49:03;;;;;;;6.17;5.53;;;13.00;93.30;;;13.49;77.88;98911.72;5126679;27;20494;-76
2022/10/06 04:51:32;;;;;;;7.63;5.20;;;13.10;92.60;;;13.56;78.00;98929.66;5107734;27;20475;-75
2022/10/06 04:53:59;;;;;;;9.70;5.07;;;13.10;92.60;;;13.65;77.66;98927.56;5116153;27;20450;-76
2022/10/06 04:56:29;;;;;;;8.63;4.67;;;13.20;92.40;;;13.51;77.63;98906.94;5115991;27;20465;-76
2022/10/06 04:58:57;;;;;;;6.63;4.90;;;13.20;92.20;;;13.70;76.48;98897.03;5131110;27;20493;-77
2022/10/06 05:01:27;;;;;;;7.10;5.00;;;13.40;91.70;;;13.85;76.58;98930.19;5108543;27;20551;-78
2022/10/06 05:03:56;;;;;;;8.63;6.37;;;13.40;91.50;;;13.85;76.63;98922.03;5124382;27;20949;-77
2022/10/06 05:06:26;;;;;;;10.73;7.20;;;13.50;91.50;;;13.88;76.48;98928.94;5100813;27;20550;-76
2022/10/06 05:08:56;;;;;;;8.27;6.07;;;13.50;91.50;;;14.00;75.84;98943.53;5114513;27;21221;-75
2022/10/06 05:11:24;;;;;;;5.90;5.30;;;13.50;91.30;;;13.90;76.26;98950.47;5100701;27;20536;-77
2022/10/06 05:13:54;;;;;;;6.97;5.97;;;13.50;91.30;;;13.99;75.89;98951.88;5115485;27;20549;-75
2022/10/06 05:16:23;;;;;;;5.60;5.10;;;13.60;91.30;;;14.08;76.00;98952.47;5100727;27;20499;-76
2022/10/06 05:18:50;;;;;;;6.03;5.43;;;13.60;91.30;;;14.09;75.85;98952.25;5120456;27;20553;-83
2022/10/06 05:21:20;;;;;;;5.73;5.03;;;13.70;91.00;;;14.15;75.25;98962.25;5133628;27;20478;-83
2022/10/06 05:23:48;;;;;;;8.60;5.53;;;13.70;90.90;;;14.20;75.61;98969.78;5131407;27;20869;-80
2022/10/06 05:26:20;;;;;;;5.60;5.10;;;13.70;91.10;;;14.21;75.83;98976.06;5116284;27;20458;-86
2022/10/06 05:28:47;;;;;;;6.13;4.93;;;13.70;91.30;;;14.19;75.76;98978.97;5123680;27;20455;-84
2022/10/06 05:31:19;;;;;;;6.83;5.23;;;13.70;91.60;;;14.30;75.57;98980.16;5125359;27;20534;-88
2022/10/06 05:33:47;;;;;;;7.90;6.03;;;13.70;91.60;;;14.36;75.37;98973.03;5130652;27;20453;-85
2022/10/06 05:36:17;;;;;;;7.87;6.40;;;13.80;91.40;;;14.09;75.54;98990.31;5106766;28;20479;-83
2022/10/06 05:38:45;;;;;;;5.67;5.17;;;13.80;90.90;;;14.31;74.68;98973.69;5127990;27;20458;-83
2022/10/06 05:41:14;;;;;;;6.50;5.47;;;13.90;90.90;;;14.42;75.04;98988.50;5132548;27;20641;-79
2022/10/06 05:43:45;;;;;;;9.27;6.10;;;13.90;90.80;;;14.58;73.90;99003.47;5124067;27;20471;-79
2022/10/06 05:46:16;;;;;;;10.13;6.23;;;14.00;90.40;;;14.52;73.46;98993.47;5142458;27;20525;-79
2022/10/06 05:48:46;;;;;;;8.83;5.27;;;14.10;90.20;;;14.68;73.46;98997.53;5152802;27;20456;-80
2022/10/06 05:51:15;;;;;;;8.50;6.00;;;14.20;90.10;;;14.58;73.86;99008.91;5144303;27;20446;-81
2022/10/06 05:53:42;;;;;;;9.50;6.20;;;14.10;90.10;;;14.66;73.62;99014.09;5129451;27;20526;-81
2022/10/06 05:56:13;;;;;;;10.83;7.00;;;14.20;90.10;;;14.61;74.27;99019.34;5109616;27;20549;-83
2022/10/06 05:58:45;;;;;;;10.00;6.30;;;14.20;90.00;;;14.54;74.54;99024.00;5138133;27;20449;-81
2022/10/06 06:01:14;;;;;;;8.40;6.60;;;14.20;90.00;;;14.65;74.08;99027.91;5121132;27;20490;-83
2022/10/06 06:03:43;;;;;;;10.33;6.60;;;14.20;89.90;;;14.41;73.86;99003.97;5110214;27;20511;-83
2022/10/06 06:06:17;;;;;;;15.87;6.50;;;14.30;89.60;;;14.69;73.41;99031.84;5128303;27;20568;-79
2022/10/06 06:08:45;;;;;;;9.63;6.73;;;14.30;89.70;;;14.64;73.89;99016.19;5104834;27;20508;-80
2022/10/06 06:11:13;;;;;;;13.83;6.60;;;14.30;89.90;;;14.59;73.33;99005.13;5131322;27;20539;-80
2022/10/06 06:13:40;;;;;;;8.33;6.70;;;14.40;89.50;;;14.32;73.92;98969.91;5118178;27;20496;-80
2022/10/06 06:16:14;;;;;;;8.60;6.80;;;14.40;89.70;;;14.77;73.66;99034.34;5105353;28;20537;-80
2022/10/06 06:18:41;;;;;;;11.90;6.43;;;14.40;89.50;;;14.82;73.43;99037.25;5108371;27;20462;-78
2022/10/06 06:21:10;;;;;;;7.33;6.10;;;14.40;89.30;;;14.92;72.62;99030.50;5103087;27;21919;-80
2022/10/06 06:23:40;;;;;;;9.33;6.30;;;14.50;89.10;;;15.09;72.21;99038.94;5111989;27;20530;-79
2022/10/06 06:26:10;;;;;;;10.63;6.23;;;14.60;89.10;;;15.05;72.11;99040.47;5110667;27;20490;-81
2022/10/06 06:28:38;;;;;;;7.50;6.43;;;14.60;88.70;;;15.17;71.76;99057.75;5094806;27;20497;-80
2022/10/06 06:31:10;;;;;;;8.37;7.00;;;14.70;88.40;;;15.00;72.46;99060.16;5117027;27;20450;-83
2022/10/06 06:33:39;;;;;;;9.40;6.53;;;14.70;88.30;;;15.12;72.36;99060.31;5097046;27;20460;-79
2022/10/06 06:36:14;;;;;;;10.67;6.57;;;14.70;88.50;;;14.99;72.74;99078.38;5114798;27;20503;-77
2022/10/06 06:38:41;;;;;;;9.60;5.60;;;14.70;88.60;;;14.70;73.08;99050.69;5116311;27;20539;-78
2022/10/06 06:41:21;;;;;;;10.20;5.60;;;14.70;88.70;;;14.75;73.22;99041.06;5101002;27;20511;-79
2022/10/06 06:43:49;;;;;;;6.27;5.03;;;14.70;88.80;;;15.22;72.08;99084.31;5115671;27;20970;-79
2022/10/06 06:46:22;;;;;;;8.93;4.60;;;14.70;88.80;;;15.51;71.14;99088.28;5116598;27;20552;-78
2022/10/06 06:48:51;;;;;;;6.13;5.43;;;14.90;88.40;;;15.60;70.34;99105.19;5102820;27;20559;-80
2022/10/06 06:51:21;;;;;;;7.90;6.03;;;15.10;87.90;;;15.72;70.36;99103.41;5101786;27;20458;-78
2022/10/06 06:53:49;;;;;;;8.10;5.43;;;15.20;87.90;;;15.63;70.43;99093.03;5097947;27;21157;-80
2022/10/06 06:56:17;;;;;;;6.03;4.57;;;15.20;87.60;;;15.66;70.50;99120.66;5115146;27;21217;-78
2022/10/06 06:58:46;;;;;;;7.13;5.60;;;15.30;87.40;;;15.76;70.50;99120.16;5103753;27;20515;-78
2022/10/06 07:01:16;;;;;;;12.97;5.90;;;15.30;87.50;;;15.60;71.29;99109.81;5101761;27;20557;-77
2022/10/06 07:03:50;;;;;;;10.03;5.37;;;15.30;87.80;;;15.82;71.29;99121.97;5120405;27;20607;-78
2022/10/06 07:06:19;;;;;;;5.67;5.07;;;15.40;88.00;;;15.99;71.19;99132.34;5087891;28;20939;-78
2022/10/06 07:08:48;;;;;;;9.50;5.10;;;15.50;88.00;;;16.02;71.25;99133.78;5111656;27;20519;-79
2022/10/06 07:11:18;;;;;;;9.43;5.03;;;15.50;88.10;;;16.02;71.79;99131.06;5106825;27;20755;-78
2022/10/06 07:13:47;;;;;;;8.13;5.30;;;15.60;88.30;;;16.07;71.62;99148.41;5118588;27;21044;-78
2022/10/06 07:27:23;;;;;;;11.53;5.00;;;15.40;90.20;;;15.70;75.40;99170.91;5113365;27;20454;-78
2022/10/06 07:29:53;;;;;;;7.50;5.10;;;15.40;90.50;;;15.79;75.16;99165.19;5116721;27;20463;-78
2022/10/06 07:32:21;;;;;;;5.70;4.50;;;15.50;90.60;;;15.83;75.30;99172.69;5088631;27;20506;-77
2022/10/06 07:34:50;;;;;;;6.03;5.40;;;15.60;90.60;;;15.70;75.58;99178.25;5124431;27;20983;-77
2022/10/06 07:37:18;;;;;;;5.13;4.73;;;15.50;90.70;;;15.73;75.54;99178.63;5120758;27;20457;-78
2022/10/06 07:39:48;;;;;;;5.37;4.87;;;15.50;90.80;;;15.70;76.00;99181.81;5115196;27;20546;-77
2022/10/06 07:42:16;;;;;;;7.30;4.93;;;15.50;90.90;;;15.76;76.43;99185.53;5094109;27;20452;-76
2022/10/06 07:45:36;;;;;;;7.13;4.67;;;15.50;91.30;;;15.63;77.06;99199.25;5116337;27;20465;-81
2022/10/06 07:47:36;;;;;;;6.10;4.50;;;15.40;91.40;;;15.35;78.15;99211.34;5109747;27;20446;-79
2022/10/06 07:50:06;;;;;;;5.50;4.50;;;15.20;91.90;;;14.85;79.06;99166.56;5097174;27;20464;-81
2022/10/06 07:52:35;;;;;;;4.37;3.90;;;15.10;92.80;;;15.08;79.63;99215.03;5103813;28;20564;-83
2022/10/06 07:55:03;;;;;;;5.60;3.97;;;15.00;93.40;;;15.02;79.83;99218.63;5111217;27;20550;-77
2022/10/06 07:57:33;;;;;;;4.90;3.13;;;14.80;93.60;;;15.05;77.92;99225.50;5117110;27;20940;-77
2022/10/06 08:00:04;;;;;;;3.37;2.90;;;14.90;92.20;;;15.29;75.84;99222.06;5091093;27;20446;-76
2022/10/06 08:02:31;;;;;;;3.10;2.53;;;15.00;91.30;;;15.39;73.06;99220.75;5088977;27;20529;-77
2022/10/06 08:04:59;;;;;;;2.33;2.10;;;15.10;89.90;;;15.03;74.07;99223.03;5114642;27;20536;-77
2022/10/06 08:07:28;;;;;;;3.67;2.30;;;15.10;89.30;;;15.28;74.38;99239.47;5092029;28;20462;-79
2022/10/06 08:09:55;;;;;;;7.50;2.30;;;15.00;89.70;;;15.51;73.15;99237.25;5113384;28;20463;-79
2022/10/06 08:12:36;;;;;;;2.23;1.87;;;15.10;89.50;;;15.44;72.07;99246.28;5113226;27;20475;-79
2022/10/06 08:15:05;;;;;;;1.70;1.57;;;15.20;88.60;;;15.20;70.06;99256.03;5110345;27;20450;-80
2022/10/06 08:17:33;;;;;;;3.03;2.17;;;15.10;86.00;;;15.21;69.92;99254.97;5110225;27;20449;-78
2022/10/06 08:20:00;;;;;;;1.83;1.50;;;15.00;85.90;;;15.30;70.63;99261.00;5113526;27;20928;-79
2022/10/06 08:22:29;;;;;;;2.00;1.30;;;15.00;86.60;;;15.00;71.75;99261.53;5112397;27;20461;-79
2022/10/06 08:24:57;;;;;;;3.23;1.50;;;14.90;86.50;;;15.01;71.57;99266.78;5111881;27;21067;-79
2022/10/06 08:27:25;;;;;;;2.63;1.63;;;14.80;86.80;;;15.04;70.72;99268.25;5114395;27;21047;-80
2022/10/06 08:29:53;;;;;;;3.67;2.40;;;14.80;86.60;;;15.13;71.05;99255.22;5104399;27;20455;-80
2022/10/06 08:32:21;;;;;;;4.20;1.47;;;14.90;86.60;;;14.81;70.22;99225.19;5116447;27;20531;-83
2022/10/06 08:34:49;;;;;;;4.30;1.60;;;14.90;86.00;;;15.08;69.15;99268.63;5124744;27;20485;-80
2022/10/06 08:37:22;;;;;;;1.90;1.20;;;14.90;85.30;;;15.22;68.24;99283.84;5111134;27;20936;-86
2022/10/06 08:39:51;;;;;;;2.87;1.13;;;15.00;84.80;;;15.13;67.82;99285.16;5113268;27;20446;-83
2022/10/06 08:42:31;;;;;;;3.03;0.93;;;15.00;84.20;;;15.18;67.49;99269.00;5131551;27;20489;-80
2022/10/06 08:45:02;;;;;;;2.63;0.77;;;15.00;84.00;;;15.33;66.94;99274.22;5137866;27;20495;-82
2022/10/06 08:47:35;;;;;;;4.70;1.30;;;15.10;83.70;;;15.43;66.79;99274.56;5115875;27;20454;-83
2022/10/06 08:50:05;;;;;;;2.10;0.90;;;15.10;83.50;;;15.45;66.52;99279.81;5132860;27;20469;-80
2022/10/06 08:52:53;;;;;;;2.30;1.10;;;15.10;83.50;;;15.34;67.12;99286.75;5110304;27;20587;-90
2022/10/06 08:55:34;;;;;;;3.63;1.13;;;15.10;83.40;;;15.72;66.17;99291.38;5129563;27;20468;-83
2022/10/06 08:58:27;;;;;;;3.00;1.50;;;15.20;83.60;;;15.98;65.11;99296.91;5116384;27;20539;-85
2022/10/06 09:00:55;;;;;;;3.97;1.60;;;15.50;83.30;;;16.04;64.96;99287.88;5129520;27;20522;-91
2022/10/06 09:03:28;;;;;;;3.40;1.20;;;15.70;83.00;;;15.75;65.47;99287.41;5113032;27;20507;-81
2022/10/06 09:06:06;;;;;;;4.10;1.70;;;15.60;82.50;;;16.20;64.48;99285.69;5144981;27;20437;-81
2022/10/06 09:08:49;;;;;;;4.93;1.60;;;15.80;82.70;;;16.36;63.44;99296.03;5127114;27;20465;-78
2022/10/06 09:11:44;;;;;;;2.40;1.40;;;16.10;81.80;;;16.40;62.98;99286.34;5123554;27;20454;-76
2022/10/06 09:14:18;;;;;;;4.53;1.50;;;16.10;81.30;;;16.37;62.76;99303.16;5137867;27;20477;-84
2022/10/06 09:16:52;;;;;;;2.97;1.40;;;16.20;81.20;;;16.66;62.71;99308.16;5139318;27;20445;-80
2022/10/06 09:22:05;;;;;;;1.97;1.00;;;16.20;80.70;;;16.32;61.48;99213.00;5128832;22;20487;-80
2022/10/06 09:24:40;;;;;;;2.07;1.40;;;16.50;80.90;;;16.82;60.33;99212.06;5036320;28;20534;-78
2022/10/06 09:27:20;;;;;;;2.20;1.10;;;16.70;80.60;;;16.97;59.78;99266.28;5045183;28;20449;-78
2022/10/06 09:29:48;;;;;;;3.27;1.13;;;17.00;79.40;;;17.04;59.99;99311.81;5029066;28;20452;-83
2022/10/06 09:32:16;;;;;;;8.37;1.60;;;16.80;79.10;;;17.47;59.41;99319.09;5023159;28;20438;-78
2022/10/06 09:34:50;;;;;;;4.00;1.50;;;17.00;79.30;;;17.37;58.94;99318.81;5043032;28;20493;-80
2022/10/06 09:37:17;;;;;;;3.80;1.40;;;17.10;78.60;;;17.44;58.69;99307.78;5015397;28;20819;-82
2022/10/06 09:39:48;;;;;;;2.30;1.20;;;17.10;78.10;;;17.01;60.04;99315.00;5023292;28;20487;-83
2022/10/06 09:42:21;;;;;;;3.03;1.67;;;16.80;78.40;;;17.03;59.78;99318.31;4996009;28;20457;-81
2022/10/06 09:45:01;;;;;;;2.20;1.50;;;16.80;78.40;;;16.68;60.94;99315.06;5007084;28;21010;-86
2022/10/06 09:47:43;;;;;;;2.90;1.43;;;16.40;78.90;;;16.27;61.75;99316.44;5019473;28;20508;-84
2022/10/06 09:50:20;;;;;;;3.03;1.63;;;16.20;79.00;;;16.35;62.61;99321.63;5032318;28;20507;-77
2022/10/06 09:53:05;;;;;;;4.43;1.50;;;16.10;79.80;;;16.34;62.66;99319.13;5038186;28;21001;-84
2022/10/06 09:55:42;;;;;;;2.20;1.37;;;16.00;80.10;;;16.29;63.16;99312.44;5011022;28;20466;-80
2022/10/06 09:58:28;;;;;;;3.23;1.20;;;16.00;80.20;;;16.26;63.47;99314.78;5016206;28;20950;-82
2022/10/06 10:00:58;;;;;;;2.73;1.40;;;16.00;80.40;;;16.52;62.40;99332.00;5023545;28;20470;-78
2022/10/06 10:03:40;;;;;;;4.97;2.10;;;16.10;80.40;;;16.40;62.55;99319.06;5032326;28;20582;-79
2022/10/06 10:06:08;;;;;;;1.70;1.60;;;16.20;80.10;;;16.57;62.45;99318.50;5044047;28;20478;-78
2022/10/06 10:08:36;;;;;;;2.50;1.17;;;16.30;80.10;;;16.47;61.46;99334.56;5032812;28;20477;-78
2022/10/06 10:14:17;;;;;;;1.63;1.20;;;16.20;79.00;;;16.45;61.73;99309.38;5041295;28;20559;-80
2022/10/06 10:16:44;;;;;;;1.73;1.20;;;16.30;79.30;;;16.75;60.80;99303.25;5044916;28;20458;-78
2022/10/06 10:19:26;;;;;;;1.93;1.50;;;16.40;79.10;;;16.76;60.53;99299.47;5045205;28;20449;-78
2022/10/06 10:21:56;;;;;;;4.70;1.87;;;16.50;79.00;;;16.93;60.63;99318.81;5031025;28;20473;-78
2022/10/06 10:24:48;;;;;;;3.23;1.40;;;16.50;79.10;;;16.93;61.19;99318.81;5035408;28;20454;-79
2022/10/06 10:27:24;;;;;;;2.10;1.40;;;16.50;79.10;;;17.17;60.78;99325.31;5019488;28;20463;-76
2022/10/06 10:30:08;;;;;;;2.92;1.40;;;16.70;79.40;;;17.32;60.23;99321.38;5020513;28;20469;-77
2022/10/06 10:32:51;;;;;;;4.03;1.50;;;16.80;79.00;;;16.98;60.58;99322.53;5003308;28;20206;-78
2022/10/06 10:35:24;;;;;;;5.97;1.93;;;16.70;79.00;;;16.82;60.68;99320.41;5017181;28;20954;-80
2022/10/06 10:37:58;;;;;;;3.17;1.73;;;16.60;78.80;;;16.86;61.20;99318.88;5025978;28;20496;-78
2022/10/06 10:40:36;;;;;;;6.90;1.40;;;16.50;79.10;;;16.89;60.45;99326.63;5001820;28;20467;-86
2022/10/06 10:43:26;;;;;;;2.00;1.20;;;16.50;79.10;;;16.95;59.44;99325.72;5020903;28;21040;-81
2022/10/06 10:45:59;;;;;;;2.43;1.23;;;16.60;78.40;;;16.90;59.67;99317.38;5004903;28;20940;-84
2022/10/06 10:48:32;;;;;;;1.93;1.40;;;16.60;77.80;;;16.95;60.05;99322.16;5022097;28;20462;-81
2022/10/06 10:51:07;;;;;;;2.40;1.30;;;16.70;78.40;;;16.97;59.97;99329.06;5007570;28;20451;-79
2022/10/06 10:53:44;;;;;;;1.73;1.53;;;16.70;78.40;;;17.05;59.52;99300.66;4999998;28;20475;-81
2022/10/06 10:56:16;;;;;;;2.03;1.40;;;16.80;78.60;;;17.15;59.68;99329.34;5009493;28;20460;-78
2022/10/06 10:58:45;;;;;;;3.63;1.70;;;16.80;78.10;;;17.46;59.10;99322.88;5000888;28;20532;-81
2022/10/06 11:01:31;;;;;;;3.00;1.30;;;17.00;78.10;;;17.40;59.17;99312.88;5009820;28;20468;-80
2022/10/06 11:03:59;;;;;;;2.50;1.30;;;17.10;78.00;;;18.01;57.53;99326.59;5010309;28;20448;-82
2022/10/06 11:06:59;;;;;;;3.90;1.30;;;17.50;77.40;;;18.50;56.34;99314.72;5028323;28;20459;-78
2022/10/06 11:09:37;;;;;;;3.67;1.60;;;17.90;76.90;;;18.87;55.23;99316.41;5019082;28;20470;-82
2022/10/06 11:12:19;;;;;;;4.10;1.40;;;18.40;76.10;;;18.80;55.02;99311.06;5001727;28;21045;-80
2022/10/06 11:14:56;;;;;;;1.73;1.07;;;18.60;75.50;;;18.75;55.62;99324.63;4998188;28;20540;-81
2022/10/06 11:17:43;;;;;;;1.80;1.33;;;18.40;75.60;;;18.38;56.88;99315.53;5001074;28;20546;-82
2022/10/06 11:20:36;;;;;;;2.73;1.43;;;18.20;76.60;;;18.01;58.72;99321.13;5020330;28;20459;-83
2022/10/06 11:23:23;;;;;;;2.90;1.47;;;17.90;77.40;;;17.82;59.53;99323.91;4993741;28;20475;-80
2022/10/06 11:26:03;;;;;;;4.63;1.50;;;17.50;77.80;;;17.50;60.04;99337.75;5004998;28;20498;-83
2022/10/06 11:28:39;;;;;;;6.20;1.63;;;17.30;78.00;;;17.35;59.07;99334.56;5017786;28;20454;-82
2022/10/06 11:31:16;;;;;;;1.93;1.27;;;17.10;77.00;;;17.28;58.34;99326.44;5016989;28;20962;-80